createdAt,value
2023-01-19T00:00:28.593Z,85.96
2023-01-19T00:02:55.028Z,83.71
2023-01-19T00:05:21.682Z,84.19
2023-01-19T00:07:48.047Z,82.95
2023-01-19T00:10:14.622Z,84.08
2023-01-19T00:12:41.050Z,82.88
2023-01-19T00:15:08.134Z,83.62
2023-01-19T00:17:34.469Z,83.71
2023-01-19T00:20:00.875Z,83.67
2023-01-19T00:22:27.211Z,83.93
2023-01-19T00:24:53.590Z,83.62
2023-01-19T00:27:20.007Z,83.26
2023-01-19T00:29:46.461Z,83.74
2023-01-19T00:32:12.898Z,84.16
2023-01-19T00:34:49.584Z,83.53
2023-01-19T00:37:16.988Z,84.00
2023-01-19T00:39:43.787Z,84.89
2023-01-19T00:42:32.188Z,84.36
2023-01-19T00:44:58.673Z,85.64
2023-01-19T00:47:25.474Z,85.92
2023-01-19T00:49:51.967Z,85.44
2023-01-19T00:52:18.376Z,86.26
2023-01-19T00:54:44.726Z,86.44
2023-01-19T00:57:11.131Z,86.09
2023-01-19T00:59:37.596Z,85.92
2023-01-19T01:02:04.149Z,85.67
2023-01-19T01:04:31.064Z,85.68
2023-01-19T01:06:57.460Z,85.29
2023-01-19T01:09:24.229Z,84.67
2023-01-19T01:11:50.687Z,84.75
2023-01-19T01:14:18.137Z,85.84
2023-01-19T01:16:44.616Z,84.39
2023-01-19T01:19:11.038Z,85.40
2023-01-19T01:21:37.517Z,84.32
2023-01-19T01:24:04.380Z,83.90
2023-01-19T01:26:30.875Z,83.87
2023-01-19T01:28:57.266Z,83.46
2023-01-19T01:31:23.705Z,83.98
2023-01-19T01:33:50.196Z,84.14
2023-01-19T01:36:16.624Z,85.13
2023-01-19T01:38:43.044Z,85.06
2023-01-19T01:41:09.552Z,84.46
2023-01-19T01:43:58.589Z,84.53
2023-01-19T01:46:27.041Z,83.78
2023-01-19T01:49:07.633Z,84.84
2023-01-19T01:51:44.593Z,83.96
2023-01-19T01:54:28.712Z,83.62
2023-01-19T01:57:00.409Z,84.29
2023-01-19T01:59:34.626Z,84.62
2023-01-19T02:02:25.956Z,84.70
2023-01-19T02:04:59.126Z,84.81
2023-01-19T02:08:17.146Z,84.27
2023-01-19T02:11:02.933Z,84.49
2023-01-19T02:13:30.902Z,83.75
2023-01-19T02:16:00.945Z,84.21
2023-01-19T02:18:29.606Z,83.75
2023-01-19T02:21:38.039Z,83.74
2023-01-19T02:24:04.915Z,84.42
2023-01-19T02:26:44.295Z,83.78
2023-01-19T02:29:13.310Z,84.13
2023-01-19T02:31:40.902Z,84.38
2023-01-19T02:34:10.957Z,84.58
2023-01-19T02:37:12.630Z,84.75
2023-01-19T02:39:43.152Z,84.31
2023-01-19T02:42:18.366Z,84.76
2023-01-19T02:44:48.921Z,84.44
2023-01-19T02:47:15.929Z,84.16
2023-01-19T02:49:42.416Z,83.97
2023-01-19T02:52:17.635Z,84.03
2023-01-19T02:55:15.226Z,83.18
2023-01-19T02:58:11.421Z,84.06
2023-01-19T03:00:52.193Z,84.70
2023-01-19T03:03:32.735Z,84.56
2023-01-19T03:06:12.396Z,84.04
2023-01-19T03:09:08.689Z,84.26
2023-01-19T03:11:42.404Z,84.66
2023-01-19T03:14:18.380Z,85.29
2023-01-19T03:16:55.138Z,85.34
2023-01-19T03:19:34.758Z,84.77
2023-01-19T03:22:07.312Z,85.27
2023-01-19T03:24:39.958Z,85.04
2023-01-19T03:27:12.839Z,85.24
2023-01-19T03:29:44.967Z,84.71
2023-01-19T03:32:16.377Z,84.92
2023-01-19T03:34:43.999Z,83.68
2023-01-19T03:37:13.410Z,84.45
2023-01-19T03:39:40.001Z,84.00
2023-01-19T03:42:11.639Z,83.53
2023-01-19T03:44:40.287Z,83.27
2023-01-19T03:47:10.372Z,83.16
2023-01-19T03:49:38.307Z,83.32
2023-01-19T03:52:05.204Z,82.73
2023-01-19T03:54:32.024Z,83.19
2023-01-19T03:56:58.823Z,83.72
2023-01-19T03:59:25.207Z,84.15
2023-01-19T04:01:52.297Z,84.33
2023-01-19T04:04:18.704Z,84.61
2023-01-19T04:06:45.115Z,83.99
2023-01-19T04:09:11.629Z,83.77
2023-01-19T04:11:38.064Z,83.92
2023-01-19T04:14:04.502Z,83.95
2023-01-19T04:16:30.914Z,83.40
2023-01-19T04:18:57.311Z,84.31
2023-01-19T04:21:23.750Z,84.06
2023-01-19T04:23:50.130Z,83.71
2023-01-19T04:26:16.524Z,84.01
2023-01-19T04:28:42.905Z,84.70
2023-01-19T04:31:09.408Z,84.31
2023-01-19T04:33:35.911Z,84.68
2023-01-19T04:36:02.452Z,84.80
2023-01-19T04:38:28.808Z,85.47
2023-01-19T04:40:55.327Z,84.95
2023-01-19T04:43:22.924Z,85.82
2023-01-19T04:45:50.153Z,85.01
2023-01-19T04:48:18.339Z,85.13
2023-01-19T04:50:44.743Z,85.74
2023-01-19T04:53:12.331Z,86.24
2023-01-19T04:55:38.820Z,85.35
2023-01-19T04:58:05.412Z,85.87
2023-01-19T05:00:31.761Z,86.00
2023-01-19T05:02:58.406Z,85.21
2023-01-19T05:05:25.052Z,85.92
2023-01-19T05:07:51.434Z,85.96
2023-01-19T05:10:17.999Z,86.45
2023-01-19T05:12:44.465Z,86.05
2023-01-19T05:15:11.174Z,85.66
2023-01-19T05:17:37.860Z,86.03
2023-01-19T05:20:04.801Z,86.11
2023-01-19T05:22:31.529Z,85.95
2023-01-19T05:24:58.287Z,85.88
2023-01-19T05:27:24.725Z,87.01
2023-01-19T05:29:51.143Z,87.26
2023-01-19T05:32:17.502Z,86.59
2023-01-19T05:34:43.908Z,86.97
2023-01-19T05:37:10.903Z,86.81
2023-01-19T05:39:37.330Z,87.03
2023-01-19T05:42:03.933Z,87.24
2023-01-19T05:44:30.313Z,86.57
2023-01-19T05:46:57.067Z,87.30
2023-01-19T05:49:23.510Z,87.81
2023-01-19T05:51:50.002Z,87.50
2023-01-19T05:54:16.487Z,87.72
2023-01-19T05:56:42.929Z,87.27
2023-01-19T05:59:10.390Z,86.50
2023-01-19T06:01:39.849Z,85.97
2023-01-19T06:04:06.714Z,87.24
2023-01-19T06:06:33.296Z,87.50
2023-01-19T06:08:59.693Z,87.37
2023-01-19T06:11:26.197Z,87.83
2023-01-19T06:13:52.820Z,86.72
2023-01-19T06:16:19.433Z,87.84
2023-01-19T06:18:46.112Z,86.74
2023-01-19T06:21:14.215Z,88.11
2023-01-19T06:23:41.009Z,87.67
2023-01-19T06:26:07.974Z,87.77
2023-01-19T06:28:34.789Z,87.72
2023-01-19T06:31:01.821Z,87.13
2023-01-19T06:33:28.639Z,88.16
2023-01-19T06:35:55.540Z,87.74
2023-01-19T06:38:22.292Z,88.42
2023-01-19T06:40:54.588Z,88.55
2023-01-19T06:43:21.878Z,88.85
2023-01-19T06:45:48.858Z,90.23
2023-01-19T06:48:15.555Z,88.67
2023-01-19T06:50:45.171Z,89.04
2023-01-19T06:53:12.232Z,88.43
2023-01-19T06:55:39.178Z,88.47
2023-01-19T06:58:06.432Z,89.40
2023-01-19T07:00:32.911Z,89.47
2023-01-19T07:02:59.628Z,90.11
2023-01-19T07:05:26.262Z,90.05
2023-01-19T07:07:54.420Z,89.79
2023-01-19T07:10:21.322Z,89.18
2023-01-19T07:12:47.937Z,89.37
2023-01-19T07:15:16.829Z,89.34
2023-01-19T07:17:43.591Z,90.52
2023-01-19T07:20:12.941Z,90.02
2023-01-19T07:22:39.583Z,89.91
2023-01-19T07:25:06.257Z,90.78
2023-01-19T07:27:32.670Z,89.04
2023-01-19T07:30:01.019Z,90.90
2023-01-19T07:32:29.020Z,89.64
2023-01-19T07:34:55.713Z,90.50
2023-01-19T07:37:22.416Z,88.63
2023-01-19T07:39:48.860Z,89.32
2023-01-19T07:42:15.671Z,90.01
2023-01-19T07:44:42.292Z,90.53
2023-01-19T07:47:11.159Z,89.25
2023-01-19T07:49:37.514Z,89.41
2023-01-19T07:52:04.020Z,89.62
2023-01-19T07:54:30.378Z,90.48
2023-01-19T07:56:56.765Z,89.30
2023-01-19T07:59:23.405Z,89.65
2023-01-19T08:01:49.836Z,89.46
2023-01-19T08:04:16.267Z,90.53
2023-01-19T08:06:45.612Z,89.56
2023-01-19T08:09:11.986Z,90.25
2023-01-19T08:11:38.529Z,89.50
2023-01-19T08:14:07.714Z,90.45
2023-01-19T08:16:34.540Z,90.66
2023-01-19T08:19:00.981Z,88.85
2023-01-19T08:21:27.780Z,88.79
2023-01-19T08:23:55.018Z,89.99
2023-01-19T08:26:27.790Z,89.32
2023-01-19T08:28:54.946Z,88.70
2023-01-19T08:31:24.509Z,89.17
2023-01-19T08:33:51.629Z,89.69
2023-01-19T08:36:18.552Z,88.51
2023-01-19T08:38:45.940Z,88.30
2023-01-19T08:41:12.785Z,87.68
2023-01-19T08:43:39.245Z,88.58
2023-01-19T08:46:06.707Z,88.08
2023-01-19T08:48:33.460Z,89.18
2023-01-19T08:51:00.404Z,87.94
2023-01-19T08:53:27.018Z,88.31
2023-01-19T08:55:57.454Z,88.20
2023-01-19T08:58:23.872Z,86.85
2023-01-19T09:00:52.447Z,86.59
2023-01-19T09:03:20.960Z,86.00
2023-01-19T09:05:47.374Z,86.11
2023-01-19T09:08:14.514Z,84.53
2023-01-19T09:10:47.168Z,84.99
2023-01-19T09:13:14.054Z,85.23
2023-01-19T09:15:41.292Z,85.36
2023-01-19T09:18:13.377Z,83.51
2023-01-19T09:20:44.448Z,84.09
2023-01-19T09:23:12.204Z,83.72
2023-01-19T09:25:39.896Z,83.40
2023-01-19T09:28:09.019Z,82.67
2023-01-19T09:30:37.388Z,83.07
2023-01-19T09:33:08.243Z,82.23
2023-01-19T09:35:34.936Z,81.82
2023-01-19T09:38:01.733Z,82.47
2023-01-19T09:40:29.066Z,81.89
2023-01-19T09:43:11.835Z,82.11
2023-01-19T09:45:51.783Z,81.88
2023-01-19T09:48:26.249Z,81.56
2023-01-19T09:50:55.822Z,80.57
2023-01-19T09:53:42.409Z,81.94
2023-01-19T09:56:15.125Z,82.04
2023-01-19T09:58:42.200Z,81.76
2023-01-19T10:01:34.849Z,81.35
2023-01-19T10:04:24.633Z,80.84
2023-01-19T10:06:54.673Z,80.42
2023-01-19T10:09:49.230Z,79.33
2023-01-19T10:12:32.519Z,80.35
2023-01-19T10:15:41.706Z,78.78
2023-01-19T10:18:33.103Z,78.22
2023-01-19T10:21:08.644Z,78.34
2023-01-19T10:23:43.702Z,78.32
2023-01-19T10:26:33.228Z,79.00
2023-01-19T10:29:17.506Z,77.99
2023-01-19T10:31:46.034Z,78.31
2023-01-19T10:34:20.957Z,78.60
2023-01-19T10:36:53.252Z,78.21
2023-01-19T10:39:20.068Z,77.08
2023-01-19T10:41:50.775Z,78.80
2023-01-19T10:44:25.765Z,76.66
2023-01-19T10:46:55.352Z,76.26
2023-01-19T10:49:29.920Z,75.63
2023-01-19T10:51:58.850Z,76.62
2023-01-19T10:54:27.627Z,76.46
2023-01-19T10:57:01.267Z,76.97
2023-01-19T10:59:48.657Z,77.04
2023-01-19T11:02:28.567Z,76.74
2023-01-19T11:05:00.945Z,75.63
2023-01-19T11:07:33.420Z,76.25
2023-01-19T11:10:21.924Z,75.06
2023-01-19T11:13:00.950Z,75.11
2023-01-19T11:15:44.520Z,74.80
2023-01-19T11:18:25.447Z,74.27
2023-01-19T11:20:55.227Z,75.13
2023-01-19T11:23:24.848Z,75.01
2023-01-19T11:25:52.823Z,74.66
2023-01-19T11:28:21.807Z,74.50
2023-01-19T11:31:02.028Z,72.95
2023-01-19T11:33:37.624Z,72.34
2023-01-19T11:36:15.266Z,73.05
2023-01-19T11:38:43.814Z,73.22
2023-01-19T11:41:18.731Z,73.21
2023-01-19T11:43:49.346Z,73.13
2023-01-19T11:46:17.527Z,72.04
2023-01-19T11:48:57.894Z,72.06
2023-01-19T11:51:27.804Z,70.19
2023-01-19T11:53:54.297Z,70.90
2023-01-19T11:56:25.861Z,71.90
2023-01-19T11:58:52.408Z,69.90
2023-01-19T12:01:33.077Z,71.23
2023-01-19T12:04:17.132Z,69.59
2023-01-19T12:06:48.395Z,67.93
2023-01-19T12:09:32.818Z,68.56
2023-01-19T12:12:04.495Z,67.35
2023-01-19T12:14:53.781Z,68.32
2023-01-19T12:17:45.181Z,67.00
2023-01-19T12:20:52.848Z,67.96
2023-01-19T12:23:54.180Z,68.05
2023-01-19T12:26:42.447Z,66.65
2023-01-19T12:29:21.834Z,67.56
2023-01-19T12:32:13.396Z,68.35
2023-01-19T12:34:40.921Z,68.85
2023-01-19T12:37:27.468Z,67.85
2023-01-19T12:39:55.934Z,66.78
2023-01-19T12:42:22.902Z,69.05
2023-01-19T12:44:53.592Z,67.12
2023-01-19T12:47:22.725Z,67.17
2023-01-19T12:49:56.399Z,66.70
2023-01-19T12:52:33.968Z,66.16
2023-01-19T12:55:36.490Z,66.68
2023-01-19T12:58:23.369Z,66.82
2023-01-19T13:01:10.637Z,66.99
2023-01-19T13:03:59.636Z,65.81
2023-01-19T13:06:48.100Z,66.78
2023-01-19T13:09:33.915Z,66.17
2023-01-19T13:12:15.552Z,65.77
2023-01-19T13:14:43.594Z,66.21
2023-01-19T13:17:22.906Z,67.14
2023-01-19T13:19:54.710Z,66.58
2023-01-19T13:23:11.656Z,66.69
2023-01-19T13:25:38.179Z,65.92
2023-01-19T13:28:09.283Z,66.98
2023-01-19T13:30:39.687Z,68.06
2023-01-19T13:33:23.322Z,67.19
2023-01-19T13:35:58.443Z,66.79
2023-01-19T13:38:27.280Z,67.44
2023-01-19T13:40:55.676Z,68.84
2023-01-19T13:43:29.033Z,67.58
2023-01-19T13:45:56.109Z,67.12
2023-01-19T13:48:24.628Z,68.84
2023-01-19T13:51:05.812Z,68.12
2023-01-19T13:53:33.035Z,67.57
2023-01-19T13:56:16.498Z,69.96
2023-01-19T13:58:43.005Z,68.87
2023-01-19T14:01:23.066Z,67.99
2023-01-19T14:03:52.284Z,69.51
2023-01-19T14:06:39.639Z,68.84
2023-01-19T14:09:19.983Z,68.08
2023-01-19T14:12:04.663Z,68.24
2023-01-19T14:14:31.408Z,67.59
2023-01-19T14:16:57.849Z,67.29
2023-01-19T14:19:24.422Z,68.24
2023-01-19T14:22:01.931Z,67.21
2023-01-19T14:24:32.087Z,68.32
2023-01-19T14:27:24.025Z,67.24
2023-01-19T14:29:53.666Z,68.14
2023-01-19T14:32:24.714Z,68.70
2023-01-19T14:35:12.461Z,67.71
2023-01-19T14:37:49.490Z,68.24
2023-01-19T14:40:21.470Z,69.82
2023-01-19T14:42:54.589Z,69.13
2023-01-19T14:45:26.089Z,68.82
2023-01-19T14:48:01.135Z,68.39
2023-01-19T14:50:32.830Z,69.04
2023-01-19T14:53:15.032Z,68.13
2023-01-19T14:55:49.306Z,68.13
2023-01-19T14:58:18.604Z,68.16
2023-01-19T15:00:46.589Z,67.73
2023-01-19T15:03:13.331Z,67.88
2023-01-19T15:05:42.134Z,68.21
2023-01-19T15:08:14.650Z,67.81
2023-01-19T15:10:41.462Z,68.49
2023-01-19T15:13:17.449Z,67.70
2023-01-19T15:15:43.839Z,67.12
2023-01-19T15:18:15.595Z,67.19
2023-01-19T15:20:41.945Z,67.85
2023-01-19T15:23:10.780Z,67.58
2023-01-19T15:25:39.402Z,68.19
2023-01-19T15:28:12.092Z,69.46
2023-01-19T15:30:39.277Z,66.95
2023-01-19T15:33:05.789Z,68.11
2023-01-19T15:35:32.151Z,67.60
2023-01-19T15:37:58.573Z,68.53
2023-01-19T15:40:25.020Z,68.90
2023-01-19T15:42:51.461Z,68.70
2023-01-19T15:45:38.419Z,68.85
2023-01-19T15:48:10.545Z,68.74
2023-01-19T15:50:40.819Z,68.38
2023-01-19T15:53:07.813Z,68.47
2023-01-19T15:55:34.230Z,70.04
2023-01-19T15:58:03.462Z,69.72
2023-01-19T16:00:31.627Z,68.00
2023-01-19T16:02:58.912Z,66.87
2023-01-19T16:05:37.438Z,66.94
2023-01-19T16:08:08.582Z,68.56
2023-01-19T16:10:35.783Z,69.09
2023-01-19T16:13:03.979Z,68.58
2023-01-19T16:15:30.493Z,69.48
2023-01-19T16:17:56.857Z,70.00
2023-01-19T16:20:23.226Z,70.42
2023-01-19T16:22:49.593Z,69.72
2023-01-19T16:25:15.980Z,69.83
2023-01-19T16:27:42.591Z,70.94
2023-01-19T16:30:11.854Z,70.99
2023-01-19T16:32:38.729Z,71.52
2023-01-19T16:35:05.609Z,70.54
2023-01-19T16:37:32.057Z,70.91
2023-01-19T16:39:58.652Z,71.50
2023-01-19T16:42:25.270Z,70.44
2023-01-19T16:44:51.741Z,72.22
2023-01-19T16:47:18.213Z,71.10
2023-01-19T16:49:44.691Z,71.43
2023-01-19T16:52:11.435Z,71.73
2023-01-19T16:54:41.220Z,72.22
2023-01-19T16:57:07.636Z,72.31
2023-01-19T16:59:34.037Z,71.20
2023-01-19T17:02:00.644Z,71.33
2023-01-19T17:04:27.316Z,70.87
2023-01-19T17:06:54.768Z,71.34
2023-01-19T17:09:21.365Z,70.71
2023-01-19T17:11:48.010Z,71.09
2023-01-19T17:14:17.347Z,71.21
2023-01-19T17:16:44.172Z,72.56
2023-01-19T17:19:15.003Z,73.29
2023-01-19T17:21:43.351Z,72.32
2023-01-19T17:24:10.646Z,72.54
2023-01-19T17:26:37.120Z,73.01
2023-01-19T17:29:08.431Z,74.21
2023-01-19T17:31:35.115Z,73.91
2023-01-19T17:34:02.028Z,73.46
2023-01-19T17:36:30.163Z,74.28
2023-01-19T17:38:58.972Z,73.30
2023-01-19T17:41:40.714Z,74.21
2023-01-19T17:44:07.442Z,73.11
2023-01-19T17:46:38.098Z,73.07
2023-01-19T17:49:06.695Z,72.83
2023-01-19T17:51:33.145Z,72.90
2023-01-19T17:53:59.599Z,73.11
2023-01-19T17:56:29.623Z,73.32
2023-01-19T17:58:57.566Z,73.65
2023-01-19T18:01:29.491Z,72.61
2023-01-19T18:03:56.916Z,73.99
2023-01-19T18:06:23.409Z,73.27
2023-01-19T18:08:50.362Z,73.07
2023-01-19T18:11:19.274Z,73.84
2023-01-19T18:13:48.033Z,73.18
2023-01-19T18:16:17.235Z,73.59
2023-01-19T18:18:44.269Z,72.38
2023-01-19T18:21:13.134Z,72.80
2023-01-19T18:23:40.313Z,73.30
2023-01-19T18:26:09.404Z,72.88
2023-01-19T18:28:36.199Z,74.19
2023-01-19T18:31:06.989Z,72.38
2023-01-19T18:33:34.062Z,73.50
2023-01-19T18:36:00.542Z,72.49
2023-01-19T18:38:27.259Z,72.27
2023-01-19T18:41:21.402Z,73.57
2023-01-19T18:43:48.445Z,72.88
2023-01-19T18:46:15.488Z,72.20
2023-01-19T18:48:41.921Z,73.05
2023-01-19T18:51:10.447Z,73.22
2023-01-19T18:53:37.610Z,71.83
2023-01-19T18:56:04.662Z,73.69
2023-01-19T18:58:32.705Z,73.18
2023-01-19T19:01:00.789Z,73.28
2023-01-19T19:03:28.306Z,73.27
2023-01-19T19:05:54.969Z,73.34
2023-01-19T19:08:21.375Z,74.68
2023-01-19T19:10:47.973Z,74.00
2023-01-19T19:13:16.070Z,72.97
2023-01-19T19:15:44.255Z,73.52
2023-01-19T19:18:13.563Z,73.49
2023-01-19T19:20:40.210Z,74.62
2023-01-19T19:23:06.773Z,74.53
2023-01-19T19:25:33.453Z,74.22
2023-01-19T19:27:59.917Z,73.16
2023-01-19T19:30:26.609Z,73.59
2023-01-19T19:32:54.446Z,74.66
2023-01-19T19:35:21.171Z,73.03
2023-01-19T19:37:48.854Z,73.36
2023-01-19T19:40:15.989Z,73.80
2023-01-19T19:42:42.362Z,73.59
2023-01-19T19:45:09.351Z,74.33
2023-01-19T19:47:35.708Z,73.59
2023-01-19T19:50:02.099Z,74.45
2023-01-19T19:52:28.519Z,74.77
2023-01-19T19:54:54.953Z,73.93
2023-01-19T19:57:21.320Z,74.09
2023-01-19T19:59:47.733Z,74.62
2023-01-19T20:02:14.152Z,74.17
2023-01-19T20:04:40.523Z,74.54
2023-01-19T20:07:06.870Z,75.01
2023-01-19T20:09:33.253Z,75.86
2023-01-19T20:11:59.694Z,75.26
2023-01-19T20:14:26.063Z,76.27
2023-01-19T20:16:53.001Z,75.48
2023-01-19T20:19:19.589Z,75.93
2023-01-19T20:21:45.996Z,76.66
2023-01-19T20:24:18.885Z,76.74
2023-01-19T20:26:51.728Z,76.49
2023-01-19T20:29:20.054Z,76.94
2023-01-19T20:31:53.771Z,77.07
2023-01-19T20:34:24.122Z,77.61
2023-01-19T20:36:53.118Z,77.61
2023-01-19T20:39:21.555Z,77.27
2023-01-19T20:41:50.176Z,77.20
2023-01-19T20:44:20.261Z,78.32
2023-01-19T20:46:47.359Z,77.20
2023-01-19T20:49:14.071Z,77.69
2023-01-19T20:51:45.105Z,78.32
2023-01-19T20:54:13.406Z,78.09
2023-01-19T20:56:41.526Z,78.82
2023-01-19T20:59:09.347Z,78.43
2023-01-19T21:01:36.285Z,77.97
2023-01-19T21:04:02.698Z,77.41
2023-01-19T21:06:29.067Z,77.99
2023-01-19T21:08:55.704Z,77.81
2023-01-19T21:11:23.932Z,78.84
2023-01-19T21:13:56.445Z,77.92
2023-01-19T21:16:28.392Z,78.21
2023-01-19T21:18:55.085Z,77.95
2023-01-19T21:21:30.480Z,77.68
2023-01-19T21:23:59.049Z,77.46
2023-01-19T21:26:25.689Z,77.89
2023-01-19T21:28:52.191Z,78.43
2023-01-19T21:31:18.749Z,78.51
2023-01-19T21:33:45.366Z,77.73
2023-01-19T21:36:11.925Z,77.64
2023-01-19T21:38:39.068Z,77.71
2023-01-19T21:41:11.898Z,78.04
2023-01-19T21:43:41.587Z,78.36
2023-01-19T21:46:20.100Z,77.69
2023-01-19T21:48:47.352Z,77.21
2023-01-19T21:51:14.748Z,78.50
2023-01-19T21:53:41.446Z,77.32
2023-01-19T21:56:09.454Z,78.98
2023-01-19T21:58:36.198Z,79.12
2023-01-19T22:01:05.063Z,79.20
2023-01-19T22:03:31.696Z,79.36
2023-01-19T22:06:07.168Z,78.94
2023-01-19T22:08:34.104Z,80.33
2023-01-19T22:11:05.471Z,80.21
2023-01-19T22:13:32.307Z,80.37
2023-01-19T22:16:00.762Z,80.33
2023-01-19T22:18:27.133Z,80.42
2023-01-19T22:20:53.741Z,80.62
2023-01-19T22:23:20.295Z,80.43
2023-01-19T22:25:46.800Z,80.41
2023-01-19T22:28:13.206Z,80.53
2023-01-19T22:30:39.672Z,81.78
2023-01-19T22:33:06.711Z,81.64
2023-01-19T22:35:33.070Z,81.21
2023-01-19T22:37:59.437Z,80.03
2023-01-19T22:40:25.770Z,80.41
2023-01-19T22:42:52.139Z,80.21
2023-01-19T22:45:18.474Z,80.35
2023-01-19T22:47:46.182Z,80.52
2023-01-19T22:50:12.536Z,81.13
2023-01-19T22:52:38.928Z,81.10
2023-01-19T22:55:05.740Z,80.68
2023-01-19T22:57:36.532Z,80.54
2023-01-19T23:00:08.490Z,80.26
2023-01-19T23:02:34.923Z,80.07
2023-01-19T23:05:01.287Z,80.58
2023-01-19T23:07:27.621Z,81.18
2023-01-19T23:09:53.967Z,80.70
2023-01-19T23:12:20.378Z,80.12
2023-01-19T23:14:46.809Z,81.14
2023-01-19T23:17:13.256Z,80.42
2023-01-19T23:19:39.604Z,81.48
2023-01-19T23:22:06.013Z,80.50
2023-01-19T23:24:32.496Z,80.95
2023-01-19T23:26:58.972Z,79.87
2023-01-19T23:29:25.307Z,80.71
2023-01-19T23:31:53.344Z,79.72
2023-01-19T23:34:19.679Z,80.71
2023-01-19T23:36:46.119Z,80.20
2023-01-19T23:39:20.900Z,81.15
2023-01-19T23:41:48.670Z,81.25
2023-01-19T23:44:17.394Z,80.53
2023-01-19T23:46:44.229Z,80.70
2023-01-19T23:49:11.459Z,80.49
2023-01-19T23:51:39.444Z,80.92
2023-01-19T23:54:05.840Z,81.86
2023-01-19T23:56:36.019Z,80.75
2023-01-19T23:59:08.147Z,79.84
